Time,TemperatureF,DewpointF,PressureIn,WindDirection,WindDirectionDegrees,WindSpeedMPH,WindSpeedGustMPH,Humidity,HourlyPrecipIn,Conditions,Clouds,dailyrainin,SolarRadiationWatts/m^2,SoftwareType,DateUTC
2013-03-29 00:01:00,25.0,7.0,29.88,East,101,7.0,11.0,45,-99.99,,,-99.99,0.100000,,2013-03-29 08:01:00,
2013-03-29 00:11:00,25.0,7.0,29.88,East,99,6.0,13.0,46,-99.99,,,-99.99,0.100000,,2013-03-29 08:11:00,
2013-03-29 00:21:00,25.0,7.0,29.88,ESE,105,8.0,13.0,46,-99.99,,,-99.99,0.000000,,2013-03-29 08:21:00,
2013-03-29 00:32:00,25.0,7.0,29.88,ESE,103,8.0,12.0,45,-99.99,,,-99.99,0.000000,,2013-03-29 08:32:00,
2013-03-29 00:41:00,25.0,7.0,29.88,East,101,6.0,10.0,46,-99.99,,,-99.99,0.000000,,2013-03-29 08:41:00,
2013-03-29 00:51:00,25.0,7.0,29.88,ESE,102,7.0,10.0,46,-99.99,,,-99.99,0.000000,,2013-03-29 08:51:00,
2013-03-29 01:02:00,26.0,7.0,29.87,ESE,103,6.0,11.0,45,-99.99,,,-99.99,0.000000,,2013-03-29 09:02:00,
2013-03-29 01:11:00,26.0,7.0,29.88,ESE,108,7.0,12.0,45,-99.99,,,-99.99,0.000000,,2013-03-29 09:11:00,
2013-03-29 01:21:00,26.0,7.0,29.87,East,101,7.0,11.0,45,-99.99,,,-99.99,0.000000,,2013-03-29 09:21:00,
2013-03-29 01:32:00,25.0,8.0,29.87,ESE,114,8.0,14.0,46,-99.99,,,-99.99,0.000000,,2013-03-29 09:32:00,
2013-03-29 01:42:00,25.0,7.0,29.87,ESE,105,7.0,11.0,45,-99.99,,,-99.99,0.000000,,2013-03-29 09:42:00,
2013-03-29 01:52:00,25.0,8.0,29.87,East,96,6.0,11.0,46,-99.99,,,-99.99,0.000000,,2013-03-29 09:52:00,
2013-03-29 02:02:00,25.0,8.0,29.87,ESE,103,7.0,11.0,47,-99.99,,,-99.99,0.100000,,2013-03-29 10:02:00,
2013-03-29 02:11:00,25.0,8.0,29.87,ESE,105,7.0,12.0,48,-99.99,,,-99.99,0.000000,,2013-03-29 10:11:00,
2013-03-29 02:22:00,25.0,8.0,29.87,East,96,5.0,10.0,48,-99.99,,,-99.99,0.000000,,2013-03-29 10:22:00,
2013-03-29 02:33:00,24.0,8.0,29.87,East,86,3.0,6.0,49,-99.99,,,-99.99,0.000000,,2013-03-29 10:33:00,
2013-03-29 02:42:00,24.0,8.0,29.87,East,83,2.0,4.0,49,-99.99,,,-99.99,0.000000,,2013-03-29 10:42:00,
2013-03-29 02:52:00,24.0,8.0,29.87,ESE,102,2.0,5.0,49,-99.99,,,-99.99,0.100000,,2013-03-29 10:52:00,
2013-03-29 03:02:00,25.0,8.0,29.87,East,84,2.0,5.0,49,-99.99,,,-99.99,0.100000,,2013-03-29 11:02:00,
2013-03-29 03:11:00,25.0,9.0,29.87,East,95,3.0,7.0,49,-99.99,,,-99.99,0.100000,,2013-03-29 11:11:00,
2013-03-29 03:21:00,25.0,9.0,29.87,East,95,4.0,8.0,49,-99.99,,,-99.99,0.100000,,2013-03-29 11:21:00,
2013-03-29 03:32:00,25.0,9.0,29.87,East,97,2.0,4.0,49,-99.99,,,-99.99,0.100000,,2013-03-29 11:32:00,
2013-03-29 03:42:00,25.0,9.0,29.87,East,99,3.0,6.0,48,-99.99,,,-99.99,0.100000,,2013-03-29 11:42:00,
2013-03-29 03:52:00,25.0,9.0,29.87,ESE,103,2.0,4.0,48,-99.99,,,-99.99,0.100000,,2013-03-29 11:52:00,
2013-03-29 04:02:00,26.0,9.0,29.87,East,83,2.0,4.0,48,-99.99,,,-99.99,0.100000,,2013-03-29 12:02:00,
2013-03-29 04:11:00,26.0,9.0,29.86,East,94,3.0,6.0,48,-99.99,,,-99.99,0.100000,,2013-03-29 12:11:00,
2013-03-29 04:22:00,25.0,9.0,29.86,East,101,4.0,9.0,48,-99.99,,,-99.99,0.100000,,2013-03-29 12:22:00,
2013-03-29 04:32:00,25.0,8.0,29.86,ESE,106,8.0,15.0,48,-99.99,,,-99.99,0.100000,,2013-03-29 12:32:00,
2013-03-29 04:42:00,25.0,8.0,29.86,ESE,105,8.0,15.0,49,-99.99,,,-99.99,0.000000,,2013-03-29 12:42:00,
2013-03-29 04:51:00,24.0,9.0,29.86,East,98,5.0,9.0,50,-99.99,,,-99.99,0.000000,,2013-03-29 12:51:00,
2013-03-29 05:02:00,25.0,8.0,29.86,East,94,5.0,10.0,48,-99.99,,,-99.99,0.000000,,2013-03-29 13:02:00,
2013-03-29 05:11:00,25.0,8.0,29.87,East,98,4.0,9.0,49,-99.99,,,-99.99,0.100000,,2013-03-29 13:11:00,
2013-03-29 05:21:00,25.0,8.0,29.87,East,95,5.0,12.0,48,-99.99,,,-99.99,0.000000,,2013-03-29 13:21:00,
2013-03-29 05:32:00,24.0,8.0,29.87,East,101,6.0,13.0,49,-99.99,,,-99.99,0.000000,,2013-03-29 13:32:00,
2013-03-29 05:42:00,25.0,8.0,29.87,East,101,7.0,12.0,48,-99.99,,,-99.99,0.000000,,2013-03-29 13:42:00,
2013-03-29 05:52:00,25.0,8.0,29.87,East,101,6.0,11.0,48,-99.99,,,-99.99,0.000000,,2013-03-29 13:52:00,
2013-03-29 06:02:00,26.0,9.0,29.86,East,93,5.0,10.0,48,-99.99,,,-99.99,0.000000,,2013-03-29 14:02:00,
2013-03-29 06:11:00,26.0,9.0,29.87,East,90,3.0,8.0,49,-99.99,,,-99.99,0.000000,,2013-03-29 14:11:00,
2013-03-29 06:21:00,26.0,10.0,29.87,East,92,3.0,7.0,50,-99.99,,,-99.99,0.000000,,2013-03-29 14:21:00,
2013-03-29 06:32:00,30.0,12.0,29.86,ESE,122,6.0,10.0,48,-99.99,,,-99.99,0.000000,,2013-03-29 14:32:00,
2013-03-29 06:41:00,30.0,13.0,29.86,SE,125,7.0,12.0,48,-99.99,,,-99.99,0.000000,,2013-03-29 14:41:00,
2013-03-29 06:52:00,27.0,10.0,29.87,East,91,4.0,7.0,48,-99.99,,,-99.99,0.100000,,2013-03-29 14:52:00,
2013-03-29 07:02:00,29.0,12.0,29.86,ESE,119,6.0,10.0,48,-99.99,,,-99.99,0.400000,,2013-03-29 15:02:00,
2013-03-29 07:11:00,27.0,11.0,29.86,East,94,4.0,7.0,49,-99.99,,,-99.99,1.100000,,2013-03-29 15:11:00,
2013-03-29 07:21:00,27.0,10.0,29.86,East,94,4.0,8.0,48,-99.99,,,-99.99,2.600000,,2013-03-29 15:21:00,
2013-03-29 07:33:00,26.0,9.0,29.86,East,92,5.0,10.0,48,-99.99,,,-99.99,6.800000,,2013-03-29 15:33:00,
2013-03-29 07:42:00,25.0,9.0,29.87,ENE,68,3.0,6.0,49,-99.99,,,-99.99,9.500000,,2013-03-29 15:42:00,
2013-03-29 07:52:00,24.0,9.0,29.87,East,86,4.0,7.0,51,-99.99,,,-99.99,12.700000,,2013-03-29 15:52:00,
2013-03-29 08:03:00,24.0,9.0,29.87,East,85,4.0,8.0,51,-99.99,,,-99.99,17.600000,,2013-03-29 16:03:00,
2013-03-29 08:12:00,24.0,8.0,29.86,East,101,8.0,15.0,51,-99.99,,,-99.99,24.100000,,2013-03-29 16:12:00,
2013-03-29 08:22:00,24.0,9.0,29.86,ESE,104,8.0,12.0,52,-99.99,,,-99.99,35.599998,,2013-03-29 16:22:00,
2013-03-29 08:32:00,25.0,9.0,29.85,ESE,102,9.0,14.0,50,-99.99,,,-99.99,49.000000,,2013-03-29 16:32:00,
2013-03-29 08:41:00,25.0,9.0,29.85,ESE,102,9.0,15.0,51,-99.99,,,-99.99,52.900002,,2013-03-29 16:41:00,
2013-03-29 08:52:00,26.0,9.0,29.86,ESE,107,9.0,15.0,49,-99.99,,,-99.99,73.099998,,2013-03-29 16:52:00,
2013-03-29 09:02:00,25.0,9.0,29.85,East,99,8.0,18.0,49,-99.99,,,-99.99,116.199997,,2013-03-29 17:02:00,
2013-03-29 09:11:00,25.0,9.0,29.86,ESE,103,7.0,13.0,49,-99.99,,,-99.99,143.100006,,2013-03-29 17:11:00,
2013-03-29 09:22:00,25.0,9.0,29.86,East,98,6.0,12.0,48,-99.99,,,-99.99,166.199997,,2013-03-29 17:22:00,
2013-03-29 09:32:00,26.0,9.0,29.86,East,99,8.0,12.0,48,-99.99,,,-99.99,133.600006,,2013-03-29 17:32:00,
2013-03-29 09:41:00,27.0,9.0,29.86,East,100,8.0,16.0,46,-99.99,,,-99.99,136.199997,,2013-03-29 17:41:00,
2013-03-29 09:52:00,28.0,10.0,29.85,ESE,109,9.0,15.0,45,-99.99,,,-99.99,154.899994,,2013-03-29 17:52:00,
2013-03-29 10:02:00,29.0,11.0,29.85,ESE,108,9.0,15.0,46,-99.99,,,-99.99,157.800003,,2013-03-29 18:02:00,
2013-03-29 10:12:00,28.0,10.0,29.85,East,96,7.0,14.0,46,-99.99,,,-99.99,163.500000,,2013-03-29 18:12:00,
2013-03-29 10:22:00,28.0,10.0,29.86,East,96,5.0,13.0,45,-99.99,,,-99.99,173.000000,,2013-03-29 18:22:00,
2013-03-29 10:32:00,28.0,9.0,29.86,East,80,4.0,9.0,45,-99.99,,,-99.99,180.699997,,2013-03-29 18:32:00,
2013-03-29 10:42:00,27.0,9.0,29.86,East,90,5.0,11.0,46,-99.99,,,-99.99,190.399994,,2013-03-29 18:42:00,
2013-03-29 10:51:00,27.0,9.0,29.87,East,99,5.0,13.0,46,-99.99,,,-99.99,199.500000,,2013-03-29 18:51:00,
2013-03-29 11:02:00,27.0,9.0,29.87,ENE,68,4.0,9.0,46,-99.99,,,-99.99,220.699997,,2013-03-29 19:02:00,
2013-03-29 11:11:00,27.0,9.0,29.87,East,80,4.0,12.0,45,-99.99,,,-99.99,213.199997,,2013-03-29 19:11:00,
2013-03-29 11:21:00,28.0,9.0,29.87,East,90,4.0,12.0,45,-99.99,,,-99.99,205.800003,,2013-03-29 19:21:00,
2013-03-29 11:32:00,28.0,9.0,29.87,East,87,4.0,9.0,45,-99.99,,,-99.99,233.800003,,2013-03-29 19:32:00,
2013-03-29 11:42:00,28.0,10.0,29.87,East,91,4.0,11.0,44,-99.99,,,-99.99,248.800003,,2013-03-29 19:42:00,
2013-03-29 11:52:00,30.0,10.0,29.87,East,89,5.0,9.0,43,-99.99,,,-99.99,213.199997,,2013-03-29 19:52:00,
2013-03-29 12:02:00,30.0,11.0,29.87,East,98,5.0,18.0,44,-99.99,,,-99.99,203.399994,,2013-03-29 20:02:00,
2013-03-29 12:11:00,31.0,11.0,29.88,ESE,103,6.0,10.0,43,-99.99,,,-99.99,227.800003,,2013-03-29 20:11:00,
2013-03-29 12:21:00,31.0,11.0,29.88,ESE,106,5.0,11.0,44,-99.99,,,-99.99,241.000000,,2013-03-29 20:21:00,
2013-03-29 12:32:00,35.0,13.0,29.87,SSE,147,9.0,16.0,41,-99.99,,,-99.99,258.100006,,2013-03-29 20:32:00,
2013-03-29 12:41:00,35.0,14.0,29.87,SE,125,9.0,15.0,41,-99.99,,,-99.99,254.699997,,2013-03-29 20:41:00,
2013-03-29 12:51:00,35.0,14.0,29.87,SE,133,11.0,19.0,41,-99.99,,,-99.99,298.500000,,2013-03-29 20:51:00,
2013-03-29 13:02:00,35.0,14.0,29.87,SE,129,10.0,20.0,41,-99.99,,,-99.99,322.399994,,2013-03-29 21:02:00,
2013-03-29 13:11:00,36.0,14.0,29.86,SE,135,13.0,24.0,40,-99.99,,,-99.99,437.700012,,2013-03-29 21:11:00,
2013-03-29 13:21:00,37.0,15.0,29.87,SE,133,13.0,23.0,40,-99.99,,,-99.99,506.500000,,2013-03-29 21:21:00,
2013-03-29 13:32:00,37.0,14.0,29.86,SE,131,11.0,18.0,38,-99.99,,,-99.99,681.799988,,2013-03-29 21:32:00,
2013-03-29 13:42:00,38.0,15.0,29.86,SE,135,9.0,19.0,38,-99.99,,,-99.99,647.299988,,2013-03-29 21:42:00,
2013-03-29 13:52:00,39.0,15.0,29.86,SSE,147,12.0,28.0,37,-99.99,,,-99.99,622.900024,,2013-03-29 21:52:00,
2013-03-29 14:02:00,37.0,13.0,29.86,SE,132,11.0,21.0,37,-99.99,,,-99.99,608.000000,,2013-03-29 22:02:00,
2013-03-29 14:12:00,37.0,13.0,29.86,SE,132,10.0,21.0,36,-99.99,,,-99.99,476.700012,,2013-03-29 22:12:00,
2013-03-29 14:22:00,37.0,13.0,29.86,SE,130,9.0,25.0,36,-99.99,,,-99.99,365.899994,,2013-03-29 22:22:00,
2013-03-29 14:32:00,38.0,14.0,29.86,SE,134,11.0,20.0,37,-99.99,,,-99.99,417.799988,,2013-03-29 22:32:00,
2013-03-29 14:42:00,38.0,15.0,29.86,SE,137,16.0,27.0,37,-99.99,,,-99.99,306.700012,,2013-03-29 22:42:00,
2013-03-29 14:52:00,38.0,15.0,29.86,SE,140,14.0,26.0,38,-99.99,,,-99.99,310.399994,,2013-03-29 22:52:00,
2013-03-29 15:02:00,38.0,15.0,29.86,SE,135,13.0,23.0,39,-99.99,,,-99.99,312.700012,,2013-03-29 23:02:00,
2013-03-29 15:11:00,39.0,15.0,29.85,SE,146,11.0,20.0,36,-99.99,,,-99.99,362.399994,,2013-03-29 23:11:00,
2013-03-29 15:22:00,39.0,15.0,29.85,SSE,148,12.0,24.0,37,-99.99,,,-99.99,390.500000,,2013-03-29 23:22:00,
2013-03-29 15:32:00,39.0,15.0,29.85,SSE,155,10.0,16.0,36,-99.99,,,-99.99,367.100006,,2013-03-29 23:32:00,
2013-03-29 15:42:00,39.0,16.0,29.85,SSE,151,10.0,18.0,38,-99.99,,,-99.99,332.700012,,2013-03-29 23:42:00,
2013-03-29 15:52:00,39.0,15.0,29.85,SSE,153,9.0,17.0,37,-99.99,,,-99.99,399.600006,,2013-03-29 23:52:00,
2013-03-29 16:02:00,39.0,16.0,29.85,SE,143,11.0,20.0,38,-99.99,,,-99.99,452.700012,,2013-03-30 00:02:00,
2013-03-29 16:11:00,39.0,17.0,29.85,SE,141,11.0,20.0,39,-99.99,,,-99.99,431.700012,,2013-03-30 00:11:00,
2013-03-29 16:21:00,39.0,17.0,29.85,SE,143,11.0,18.0,40,-99.99,,,-99.99,324.100006,,2013-03-30 00:21:00,
2013-03-29 16:32:00,39.0,17.0,29.84,SE,142,10.0,18.0,41,-99.99,,,-99.99,339.500000,,2013-03-30 00:32:00,
2013-03-29 16:42:00,39.0,17.0,29.84,SE,146,10.0,17.0,41,-99.99,,,-99.99,313.500000,,2013-03-30 00:42:00,
2013-03-29 16:52:00,38.0,17.0,29.84,SE,136,9.0,19.0,41,-99.99,,,-99.99,289.000000,,2013-03-30 00:52:00,
2013-03-29 17:02:00,39.0,17.0,29.84,SE,139,10.0,16.0,40,-99.99,,,-99.99,304.600006,,2013-03-30 01:02:00,
2013-03-29 17:11:00,39.0,17.0,29.84,SE,145,8.0,19.0,40,-99.99,,,-99.99,317.899994,,2013-03-30 01:11:00,
2013-03-29 17:21:00,39.0,17.0,29.84,SE,138,7.0,11.0,40,-99.99,,,-99.99,267.000000,,2013-03-30 01:21:00,
2013-03-29 17:32:00,39.0,17.0,29.84,SSE,151,9.0,13.0,39,-99.99,,,-99.99,242.899994,,2013-03-30 01:32:00,
2013-03-29 17:42:00,39.0,17.0,29.84,SSE,150,10.0,18.0,40,-99.99,,,-99.99,262.399994,,2013-03-30 01:42:00,
2013-03-29 17:52:00,38.0,17.0,29.84,SE,145,9.0,18.0,42,-99.99,,,-99.99,182.199997,,2013-03-30 01:52:00,
2013-03-29 18:02:00,38.0,17.0,29.84,SSE,149,9.0,16.0,42,-99.99,,,-99.99,161.000000,,2013-03-30 02:02:00,
2013-03-29 18:11:00,38.0,17.0,29.84,SE,143,11.0,19.0,41,-99.99,,,-99.99,152.000000,,2013-03-30 02:11:00,
2013-03-29 18:21:00,38.0,16.0,29.84,SSE,151,12.0,21.0,40,-99.99,,,-99.99,154.199997,,2013-03-30 02:21:00,
2013-03-29 18:32:00,38.0,16.0,29.84,SE,145,11.0,17.0,40,-99.99,,,-99.99,145.199997,,2013-03-30 02:32:00,
2013-03-29 18:41:00,38.0,16.0,29.84,SE,145,10.0,19.0,38,-99.99,,,-99.99,125.400002,,2013-03-30 02:41:00,
2013-03-29 18:52:00,38.0,16.0,29.84,SE,144,11.0,19.0,39,-99.99,,,-99.99,106.400002,,2013-03-30 02:52:00,
2013-03-29 19:02:00,38.0,16.0,29.84,SE,136,11.0,22.0,39,-99.99,,,-99.99,84.099998,,2013-03-30 03:02:00,
2013-03-29 19:11:00,38.0,16.0,29.84,SE,142,12.0,18.0,39,-99.99,,,-99.99,70.500000,,2013-03-30 03:11:00,
2013-03-29 19:21:00,38.0,15.0,29.84,SSE,152,9.0,16.0,39,-99.99,,,-99.99,79.599998,,2013-03-30 03:21:00,
2013-03-29 19:32:00,38.0,15.0,29.84,SSE,148,10.0,18.0,38,-99.99,,,-99.99,81.300003,,2013-03-30 03:32:00,
2013-03-29 19:43:00,38.0,15.0,29.84,SE,144,9.0,16.0,38,-99.99,,,-99.99,70.000000,,2013-03-30 03:43:00,
2013-03-29 19:52:00,38.0,16.0,29.84,SE,140,5.0,9.0,40,-99.99,,,-99.99,56.599998,,2013-03-30 03:52:00,
2013-03-29 20:02:00,38.0,15.0,29.84,SE,143,8.0,15.0,38,-99.99,,,-99.99,41.299999,,2013-03-30 04:02:00,
2013-03-29 20:12:00,37.0,15.0,29.84,SE,127,6.0,11.0,39,-99.99,,,-99.99,29.799999,,2013-03-30 04:12:00,
2013-03-29 20:22:00,36.0,15.0,29.85,East,97,3.0,7.0,41,-99.99,,,-99.99,18.700001,,2013-03-30 04:22:00,
2013-03-29 20:32:00,35.0,15.0,29.85,ESE,108,5.0,6.0,44,-99.99,,,-99.99,11.600000,,2013-03-30 04:32:00,
2013-03-29 20:42:00,34.0,15.0,29.85,East,89,3.0,6.0,45,-99.99,,,-99.99,5.900000,,2013-03-30 04:42:00,
2013-03-29 20:52:00,33.0,15.0,29.85,East,80,1.0,3.0,46,-99.99,,,-99.99,2.700000,,2013-03-30 04:52:00,
2013-03-29 21:02:00,33.0,15.0,29.85,East,99,3.0,4.0,48,-99.99,,,-99.99,1.300000,,2013-03-30 05:02:00,
2013-03-29 21:12:00,32.0,15.0,29.85,East,93,2.0,6.0,48,-99.99,,,-99.99,0.400000,,2013-03-30 05:12:00,
2013-03-29 21:22:00,32.0,15.0,29.86,East,97,4.0,8.0,48,-99.99,,,-99.99,0.100000,,2013-03-30 05:22:00,
2013-03-29 21:32:00,32.0,15.0,29.86,ESE,109,5.0,7.0,48,-99.99,,,-99.99,0.000000,,2013-03-30 05:32:00,
2013-03-29 21:42:00,31.0,14.0,29.86,ESE,103,4.0,6.0,49,-99.99,,,-99.99,0.100000,,2013-03-30 05:42:00,
2013-03-29 21:51:00,31.0,14.0,29.86,ESE,105,4.0,7.0,50,-99.99,,,-99.99,0.100000,,2013-03-30 05:51:00,
2013-03-29 22:01:00,31.0,14.0,29.87,ESE,112,3.0,6.0,50,-99.99,,,-99.99,0.000000,,2013-03-30 06:01:00,
2013-03-29 22:11:00,30.0,14.0,29.87,ESE,121,0.0,2.0,51,-99.99,,,-99.99,0.100000,,2013-03-30 06:11:00,
2013-03-29 22:32:00,26.0,14.0,29.87,SW,215,0.0,1.0,61,-99.99,,,-99.99,0.100000,,2013-03-30 06:32:00,
2013-03-29 22:41:00,27.0,14.0,29.87,SSW,204,0.0,1.0,58,-99.99,,,-99.99,0.100000,,2013-03-30 06:41:00,
2013-03-29 22:52:00,26.0,13.0,29.88,WSW,242,0.0,2.0,57,-99.99,,,-99.99,0.100000,,2013-03-30 06:52:00,
2013-03-29 23:02:00,26.0,14.0,29.88,South,171,1.0,2.0,58,-99.99,,,-99.99,0.100000,,2013-03-30 07:02:00,
2013-03-29 23:11:00,28.0,13.0,29.88,SSE,153,0.0,2.0,54,-99.99,,,-99.99,0.100000,,2013-03-30 07:11:00,
2013-03-29 23:21:00,27.0,13.0,29.88,East,95,1.0,3.0,55,-99.99,,,-99.99,0.100000,,2013-03-30 07:21:00,
2013-03-29 23:32:00,27.0,13.0,29.88,WNW,289,1.0,2.0,56,-99.99,,,-99.99,0.200000,,2013-03-30 07:32:00,
2013-03-29 23:41:00,27.0,13.0,29.88,WNW,287,0.0,1.0,57,-99.99,,,-99.99,0.200000,,2013-03-30 07:41:00,
2013-03-29 23:52:00,26.0,13.0,29.89,NW,311,0.0,1.0,57,-99.99,,,-99.99,0.100000,,2013-03-30 07:52:00,